Time;durP1;ratioP1;P1;durP2;ratioP2;P2;SDS_P1;SDS_P2;PMS_P1;PMS_P2;Temp;Humidity;BMP_temperature;BMP_pressure;BME280_temperature;BME280_humidity;BME280_pressure;Samples;Min_cycle;Max_cycle;Signal;HPM_P1;HPM_P2
2022/08/23 00:01:38;;;;;;;2.88;1.52;;;;;;;;;;4998141;28;20022;-74
2022/08/23 00:04:08;;;;;;;4.53;1.38;;;;;;;;;;4997140;28;20029;-74
2022/08/23 00:06:35;;;;;;;3.60;1.98;;;;;;;;;;4997791;28;20281;-75
2022/08/23 00:09:01;;;;;;;3.65;1.67;;;;;;;;;;5000338;28;20070;-75
2022/08/23 00:11:27;;;;;;;7.43;1.38;;;;;;;;;;4994693;28;20098;-75
2022/08/23 00:13:53;;;;;;;2.65;1.35;;;;;;;;;;5000685;28;20034;-74
2022/08/23 00:16:20;;;;;;;5.57;1.67;;;;;;;;;;4997494;28;20022;-75
2022/08/23 00:18:46;;;;;;;5.78;1.98;;;;;;;;;;4996337;28;20548;-75
2022/08/23 00:21:12;;;;;;;3.85;1.50;;;;;;;;;;4996860;28;20206;-75
2022/08/23 00:23:40;;;;;;;5.18;1.75;;;;;;;;;;4997148;28;20042;-75
2022/08/23 00:26:06;;;;;;;4.55;1.50;;;;;;;;;;5000238;28;20048;-75
2022/08/23 00:28:32;;;;;;;3.72;1.67;;;;;;;;;;4993721;28;20045;-74
2022/08/23 00:30:59;;;;;;;5.18;1.55;;;;;;;;;;5000262;28;20213;-75
2022/08/23 00:33:26;;;;;;;4.63;1.50;;;;;;;;;;4996919;28;20030;-75
2022/08/23 00:35:52;;;;;;;4.32;1.65;;;;;;;;;;4999315;28;20037;-74
2022/08/23 00:38:18;;;;;;;3.42;1.52;;;;;;;;;;4999085;28;20030;-75
2022/08/23 00:40:52;;;;;;;3.08;1.85;;;;;;;;;;4996174;28;20117;-74
2022/08/23 00:49:35;;;;;;;4.07;1.30;;;;;;;;;;4995344;28;20072;-74
2022/08/23 00:52:08;;;;;;;5.72;1.73;;;;;;;;;;4996787;28;20026;-74
2022/08/23 00:54:34;;;;;;;4.30;1.50;;;;;;;;;;4995543;28;20129;-74
2022/08/23 00:57:02;;;;;;;8.73;1.98;;;;;;;;;;4999190;28;20482;-75
2022/08/23 00:59:28;;;;;;;4.55;1.40;;;;;;;;;;4984128;28;20550;-74
2022/08/23 01:01:54;;;;;;;5.50;1.60;;;;;;;;;;4998487;28;20075;-74
2022/08/23 01:04:21;;;;;;;5.78;1.70;;;;;;;;;;4994889;28;20027;-74
2022/08/23 01:06:50;;;;;;;7.95;1.95;;;;;;;;;;4996120;28;20420;-75
2022/08/23 01:09:17;;;;;;;3.45;1.58;;;;;;;;;;4994483;28;20113;-75
2022/08/23 01:11:50;;;;;;;4.55;1.75;;;;;;;;;;4995969;28;20430;-75
2022/08/23 01:14:28;;;;;;;2.92;1.20;;;;;;;;;;4997555;28;20141;-74
2022/08/23 01:16:54;;;;;;;5.53;1.45;;;;;;;;;;4996412;28;20022;-75
2022/08/23 01:19:29;;;;;;;3.90;1.48;;;;;;;;;;4999591;28;20093;-75
2022/08/23 01:22:00;;;;;;;6.40;1.50;;;;;;;;;;4994040;28;20030;-75
2022/08/23 01:24:27;;;;;;;2.75;1.30;;;;;;;;;;4997076;28;20026;-75
2022/08/23 01:26:53;;;;;;;3.70;1.35;;;;;;;;;;4995811;28;20590;-75
2022/08/23 01:29:19;;;;;;;4.00;1.40;;;;;;;;;;4996932;28;20100;-75
2022/08/23 01:31:45;;;;;;;2.70;1.42;;;;;;;;;;4993510;28;20105;-74
2022/08/23 01:34:13;;;;;;;4.25;1.50;;;;;;;;;;4998791;28;20029;-75
2022/08/23 01:36:42;;;;;;;5.57;1.70;;;;;;;;;;5000178;28;20023;-75
2022/08/23 01:39:08;;;;;;;3.63;1.75;;;;;;;;;;4992134;28;20384;-74
2022/08/23 01:41:37;;;;;;;3.72;1.58;;;;;;;;;;4996437;28;20109;-75
2022/08/23 01:44:04;;;;;;;3.38;1.30;;;;;;;;;;4994761;28;20109;-75
2022/08/23 01:46:31;;;;;;;3.70;1.50;;;;;;;;;;4995616;28;20245;-75
2022/08/23 01:48:57;;;;;;;5.10;1.50;;;;;;;;;;4994798;28;20036;-75
2022/08/23 01:51:24;;;;;;;3.05;1.38;;;;;;;;;;4996055;28;20049;-75
2022/08/23 01:53:50;;;;;;;2.97;1.65;;;;;;;;;;4997250;28;20592;-75
2022/08/23 01:56:18;;;;;;;3.63;1.85;;;;;;;;;;4993169;28;20121;-75
2022/08/23 01:58:45;;;;;;;4.93;1.30;;;;;;;;;;4996207;28;20030;-75
2022/08/23 02:01:11;;;;;;;2.63;1.25;;;;;;;;;;4994175;28;20030;-74
2022/08/23 02:03:38;;;;;;;4.10;1.50;;;;;;;;;;4996550;28;20547;-75
2022/08/23 02:06:04;;;;;;;4.53;1.40;;;;;;;;;;4983331;28;20467;-75
2022/08/23 02:11:17;;;;;;;3.22;1.42;;;;;;;;;;4995635;28;20037;-75
2022/08/23 02:13:44;;;;;;;3.42;1.50;;;;;;;;;;4995527;28;20032;-74
2022/08/23 02:16:11;;;;;;;4.00;1.45;;;;;;;;;;4991575;28;20025;-75
2022/08/23 02:18:37;;;;;;;3.92;1.52;;;;;;;;;;4993417;28;20114;-75
2022/08/23 02:21:04;;;;;;;4.00;1.52;;;;;;;;;;4996246;28;20065;-75
2022/08/23 02:23:30;;;;;;;5.20;1.55;;;;;;;;;;4995326;28;20169;-75
2022/08/23 02:25:56;;;;;;;2.90;1.33;;;;;;;;;;4991763;28;20040;-75
2022/08/23 02:28:24;;;;;;;5.32;1.45;;;;;;;;;;4987601;28;20518;-75
2022/08/23 02:30:50;;;;;;;3.35;1.20;;;;;;;;;;4991757;28;20029;-75
2022/08/23 02:33:17;;;;;;;4.53;1.70;;;;;;;;;;4990693;28;20052;-75
2022/08/23 02:35:43;;;;;;;2.88;1.60;;;;;;;;;;4991271;28;20319;-75
2022/08/23 02:38:10;;;;;;;3.80;1.60;;;;;;;;;;4993974;28;20066;-75
2022/08/23 02:40:37;;;;;;;6.55;1.85;;;;;;;;;;4990051;28;20072;-75
2022/08/23 02:43:05;;;;;;;2.40;1.35;;;;;;;;;;4987726;28;20550;-75
2022/08/23 02:45:31;;;;;;;5.78;1.70;;;;;;;;;;4992398;28;20037;-75
2022/08/23 02:47:58;;;;;;;3.42;1.42;;;;;;;;;;4987625;28;20040;-75
2022/08/23 02:50:25;;;;;;;6.00;1.73;;;;;;;;;;4988189;28;20026;-75
2022/08/23 02:52:51;;;;;;;5.35;1.70;;;;;;;;;;4989608;28;20482;-75
2022/08/23 02:55:17;;;;;;;4.82;1.85;;;;;;;;;;4992070;28;20033;-75
2022/08/23 02:57:44;;;;;;;4.05;1.70;;;;;;;;;;4988040;28;20030;-75
2022/08/23 03:00:11;;;;;;;4.88;1.60;;;;;;;;;;4991920;28;20470;-75
2022/08/23 03:02:38;;;;;;;3.88;1.90;;;;;;;;;;4995594;28;20414;-75
2022/08/23 03:05:05;;;;;;;3.17;1.50;;;;;;;;;;4995865;28;20028;-75
2022/08/23 03:07:31;;;;;;;2.88;1.40;;;;;;;;;;4983837;28;20025;-75
2022/08/23 03:09:57;;;;;;;3.60;1.67;;;;;;;;;;4991558;28;20258;-74
2022/08/23 03:12:25;;;;;;;4.80;1.63;;;;;;;;;;4995102;28;20644;-75
2022/08/23 03:14:52;;;;;;;2.50;1.60;;;;;;;;;;4988462;28;20537;-75
2022/08/23 03:17:18;;;;;;;9.57;2.05;;;;;;;;;;4985834;28;20129;-75
2022/08/23 03:19:44;;;;;;;6.25;2.00;;;;;;;;;;4985840;28;20047;-75
2022/08/23 03:22:10;;;;;;;5.20;1.67;;;;;;;;;;4988831;28;20122;-75
2022/08/23 03:24:37;;;;;;;4.38;1.75;;;;;;;;;;4983946;28;20026;-75
2022/08/23 03:27:04;;;;;;;4.93;1.67;;;;;;;;;;4978027;28;20219;-74
2022/08/23 03:29:30;;;;;;;7.38;1.77;;;;;;;;;;4986968;28;20125;-73
2022/08/23 03:31:57;;;;;;;3.88;1.58;;;;;;;;;;4990763;28;20523;-74
2022/08/23 03:34:23;;;;;;;5.30;1.60;;;;;;;;;;4992711;28;20081;-74
2022/08/23 03:36:49;;;;;;;6.47;2.20;;;;;;;;;;4987502;28;20109;-74
2022/08/23 03:39:16;;;;;;;2.88;1.70;;;;;;;;;;4994433;28;20348;-74
2022/08/23 03:41:42;;;;;;;3.80;2.00;;;;;;;;;;4990745;28;20412;-74
2022/08/23 03:44:08;;;;;;;4.72;2.17;;;;;;;;;;4991648;28;20552;-74
2022/08/23 03:46:34;;;;;;;7.30;1.90;;;;;;;;;;4988565;28;20019;-75
2022/08/23 03:49:02;;;;;;;7.43;2.15;;;;;;;;;;4989552;28;20034;-75
2022/08/23 03:51:29;;;;;;;7.38;1.60;;;;;;;;;;4974056;28;20025;-74
2022/08/23 03:53:55;;;;;;;5.35;2.17;;;;;;;;;;4988570;28;20388;-75
2022/08/23 03:56:26;;;;;;;2.10;1.58;;;;;;;;;;4994830;28;20032;-74
2022/08/23 03:58:52;;;;;;;4.38;2.15;;;;;;;;;;4976785;28;20037;-74
2022/08/23 04:01:19;;;;;;;3.97;1.80;;;;;;;;;;4998179;28;20216;-74
2022/08/23 04:03:47;;;;;;;6.13;1.65;;;;;;;;;;4995306;28;20034;-75
2022/08/23 04:06:14;;;;;;;7.38;1.77;;;;;;;;;;4991468;28;20030;-75
2022/08/23 04:08:40;;;;;;;4.38;1.88;;;;;;;;;;4991469;28;20053;-76
2022/08/23 04:11:06;;;;;;;5.32;1.60;;;;;;;;;;4993948;28;20034;-76
2022/08/23 04:13:33;;;;;;;5.00;1.98;;;;;;;;;;4992290;28;20084;-75
2022/08/23 04:16:02;;;;;;;6.57;2.17;;;;;;;;;;4995258;28;20033;-76
2022/08/23 04:18:30;;;;;;;5.43;1.75;;;;;;;;;;5003335;28;20398;-75
2022/08/23 04:20:57;;;;;;;3.90;1.67;;;;;;;;;;5001112;28;20050;-75
2022/08/23 04:23:24;;;;;;;6.20;1.75;;;;;;;;;;5000770;28;20034;-75
2022/08/23 04:25:50;;;;;;;3.33;1.63;;;;;;;;;;4984880;28;20080;-75
2022/08/23 04:28:17;;;;;;;3.65;1.77;;;;;;;;;;5001084;28;20025;-75
2022/08/23 04:30:44;;;;;;;5.20;1.98;;;;;;;;;;4998797;28;20046;-75
2022/08/23 04:33:10;;;;;;;6.25;2.30;;;;;;;;;;4998341;28;20356;-75
2022/08/23 04:35:36;;;;;;;4.45;1.67;;;;;;;;;;5000516;28;20218;-75
2022/08/23 04:38:05;;;;;;;7.13;2.13;;;;;;;;;;4992075;28;20029;-78
2022/08/23 04:43:17;;;;;;;5.68;1.52;;;;;;;;;;4996885;28;20091;-83
2022/08/23 04:45:43;;;;;;;4.22;1.50;;;;;;;;;;4999820;28;20401;-82
2022/08/23 04:48:10;;;;;;;5.53;1.77;;;;;;;;;;4976510;28;20561;-83
2022/08/23 04:50:36;;;;;;;10.63;2.30;;;;;;;;;;4974028;28;20620;-83
2022/08/23 04:53:03;;;;;;;7.05;2.03;;;;;;;;;;4987496;28;20018;-83
2022/08/23 04:55:30;;;;;;;7.78;2.03;;;;;;;;;;4988289;28;20514;-83
2022/08/23 04:57:56;;;;;;;7.00;1.83;;;;;;;;;;4990646;28;20510;-82
2022/08/23 05:00:22;;;;;;;7.70;1.88;;;;;;;;;;4986956;28;20026;-83
2022/08/23 05:02:48;;;;;;;7.00;1.77;;;;;;;;;;4990798;28;20109;-84
2022/08/23 05:05:14;;;;;;;6.03;1.98;;;;;;;;;;4989901;28;20109;-82
2022/08/23 05:07:41;;;;;;;5.35;1.60;;;;;;;;;;4982497;28;20033;-81
2022/08/23 05:10:08;;;;;;;5.20;1.70;;;;;;;;;;4998944;28;20022;-80
2022/08/23 05:12:34;;;;;;;6.43;1.63;;;;;;;;;;5000881;28;20018;-79
2022/08/23 05:15:01;;;;;;;5.50;1.92;;;;;;;;;;4998873;28;20038;-81
2022/08/23 05:17:27;;;;;;;4.65;1.88;;;;;;;;;;4996924;28;20512;-77
2022/08/23 05:19:53;;;;;;;5.82;1.92;;;;;;;;;;4975802;28;20415;-81
2022/08/23 05:22:20;;;;;;;4.63;2.10;;;;;;;;;;4990988;28;20120;-81
2022/08/23 05:24:46;;;;;;;9.15;2.80;;;;;;;;;;4989363;28;20116;-78
2022/08/23 05:27:12;;;;;;;8.00;3.25;;;;;;;;;;4998218;28;20018;-81
2022/08/23 05:29:39;;;;;;;7.22;2.67;;;;;;;;;;4999293;28;20072;-79
2022/08/23 05:32:05;;;;;;;4.63;2.30;;;;;;;;;;4996443;28;20110;-81
2022/08/23 05:34:31;;;;;;;6.63;2.55;;;;;;;;;;4984031;28;20133;-80
2022/08/23 05:36:58;;;;;;;6.00;2.55;;;;;;;;;;4991800;28;20015;-79
2022/08/23 05:39:24;;;;;;;6.22;1.95;;;;;;;;;;4998543;28;20042;-78
2022/08/23 05:41:50;;;;;;;5.35;2.05;;;;;;;;;;4982080;28;20845;-78
2022/08/23 05:44:17;;;;;;;4.45;1.90;;;;;;;;;;4998493;28;20026;-78
2022/08/23 05:46:44;;;;;;;4.45;1.50;;;;;;;;;;4997205;28;20561;-75
2022/08/23 05:49:10;;;;;;;5.20;2.38;;;;;;;;;;4996578;28;20030;-77
2022/08/23 05:51:36;;;;;;;4.00;1.90;;;;;;;;;;4992592;28;20101;-78
2022/08/23 05:54:06;;;;;;;5.78;1.80;;;;;;;;;;4991263;28;20666;-77
2022/08/23 05:56:34;;;;;;;7.07;1.90;;;;;;;;;;4989937;28;20015;-76
2022/08/23 05:59:02;;;;;;;6.30;1.90;;;;;;;;;;4993279;28;20754;-83
2022/08/23 06:01:29;;;;;;;4.97;1.98;;;;;;;;;;4994526;28;20022;-84
2022/08/23 06:03:55;;;;;;;8.25;2.67;;;;;;;;;;4994007;28;20025;-81
2022/08/23 06:06:25;;;;;;;6.47;1.90;;;;;;;;;;5002552;28;20030;-84
2022/08/23 06:08:51;;;;;;;4.85;1.45;;;;;;;;;;4997680;28;20045;-82
2022/08/23 06:11:19;;;;;;;5.05;1.60;;;;;;;;;;4993666;28;20026;-82
2022/08/23 06:13:56;;;;;;;6.65;1.70;;;;;;;;;;4991094;28;20037;-79
2022/08/23 06:16:25;;;;;;;5.18;2.00;;;;;;;;;;4997556;28;20061;-78
2022/08/23 06:18:51;;;;;;;3.90;1.50;;;;;;;;;;4995255;28;20038;-78
2022/08/23 06:21:18;;;;;;;2.97;1.52;;;;;;;;;;4996741;28;20554;-77
2022/08/23 06:23:46;;;;;;;6.60;2.00;;;;;;;;;;4996946;28;20014;-76
2022/08/23 06:26:32;;;;;;;3.90;1.73;;;;;;;;;;4990143;28;20034;-76
2022/08/23 06:29:01;;;;;;;5.25;1.48;;;;;;;;;;4997212;28;20093;-75
2022/08/23 06:31:46;;;;;;;5.85;1.77;;;;;;;;;;4985662;28;20061;-75
2022/08/23 06:34:31;;;;;;;3.40;1.42;;;;;;;;;;4986704;28;20478;-75
2022/08/23 06:36:59;;;;;;;4.28;1.67;;;;;;;;;;4977978;28;20109;-75
2022/08/23 06:39:26;;;;;;;6.63;1.80;;;;;;;;;;4989863;28;20663;-74
2022/08/23 06:41:53;;;;;;;2.97;1.50;;;;;;;;;;4982258;28;20113;-75
2022/08/23 06:44:19;;;;;;;5.40;1.67;;;;;;;;;;4991886;28;20030;-75
2022/08/23 06:46:48;;;;;;;4.18;1.50;;;;;;;;;;4991096;28;20022;-75
2022/08/23 06:49:14;;;;;;;3.10;1.80;;;;;;;;;;4994697;28;20068;-75
2022/08/23 06:51:42;;;;;;;3.90;1.95;;;;;;;;;;4996830;28;20112;-75
2022/08/23 06:54:11;;;;;;;4.75;1.80;;;;;;;;;;4993600;28;20042;-75
2022/08/23 06:56:38;;;;;;;3.50;1.65;;;;;;;;;;4997193;28;20026;-74
2022/08/23 06:59:06;;;;;;;5.93;1.42;;;;;;;;;;4989296;28;20018;-75
2022/08/23 07:01:46;;;;;;;2.67;1.50;;;;;;;;;;4988667;28;20328;-75
2022/08/23 07:04:14;;;;;;;3.80;1.73;;;;;;;;;;4997294;28;20165;-75
2022/08/23 07:06:40;;;;;;;5.43;1.70;;;;;;;;;;4999612;28;20029;-75
2022/08/23 07:09:07;;;;;;;3.80;1.70;;;;;;;;;;4998707;28;20121;-75
2022/08/23 07:11:33;;;;;;;4.78;1.52;;;;;;;;;;4994819;28;20101;-75
2022/08/23 07:14:00;;;;;;;3.97;1.80;;;;;;;;;;4996282;28;20023;-75
2022/08/23 07:16:32;;;;;;;5.22;1.73;;;;;;;;;;4995824;28;20054;-75
2022/08/23 07:18:58;;;;;;;2.92;1.50;;;;;;;;;;4995595;28;20025;-75
2022/08/23 07:21:24;;;;;;;3.20;1.35;;;;;;;;;;4995570;28;20049;-75
2022/08/23 07:23:50;;;;;;;3.78;1.80;;;;;;;;;;4995411;28;20108;-75
2022/08/23 07:26:17;;;;;;;3.42;1.45;;;;;;;;;;4997937;28;20037;-75
2022/08/23 07:28:44;;;;;;;4.32;1.50;;;;;;;;;;4995917;28;20699;-75
2022/08/23 07:31:18;;;;;;;5.63;1.98;;;;;;;;;;4996732;28;20538;-75
2022/08/23 07:33:45;;;;;;;3.53;1.65;;;;;;;;;;4989305;28;20026;-75
2022/08/23 07:36:15;;;;;;;5.40;1.67;;;;;;;;;;4985034;28;20028;-75
2022/08/23 07:38:42;;;;;;;6.20;1.77;;;;;;;;;;4986090;28;20041;-75
2022/08/23 07:41:09;;;;;;;4.78;1.60;;;;;;;;;;4988996;28;20053;-75
2022/08/23 07:43:35;;;;;;;4.38;1.65;;;;;;;;;;4991798;28;20073;-76
2022/08/23 07:46:02;;;;;;;3.88;1.50;;;;;;;;;;4987425;28;20026;-75
2022/08/23 07:48:28;;;;;;;6.32;1.75;;;;;;;;;;4991329;28;20354;-75
2022/08/23 07:50:57;;;;;;;5.03;1.85;;;;;;;;;;4981806;28;20113;-75
2022/08/23 07:53:23;;;;;;;5.80;1.85;;;;;;;;;;4995383;28;20105;-75
2022/08/23 07:55:50;;;;;;;5.55;1.77;;;;;;;;;;4991088;28;20046;-75
2022/08/23 07:58:16;;;;;;;7.50;2.22;;;;;;;;;;4993446;28;20086;-75
2022/08/23 08:00:42;;;;;;;4.22;1.80;;;;;;;;;;4993261;28;20028;-75
2022/08/23 08:03:10;;;;;;;4.80;1.67;;;;;;;;;;4991404;28;20036;-75
2022/08/23 08:05:36;;;;;;;5.20;1.60;;;;;;;;;;4973910;28;20018;-75
2022/08/23 08:08:03;;;;;;;3.85;1.80;;;;;;;;;;4995009;28;20054;-75
2022/08/23 08:10:29;;;;;;;5.07;1.58;;;;;;;;;;4992358;28;20026;-75
2022/08/23 08:12:56;;;;;;;4.82;1.50;;;;;;;;;;4990563;28;20129;-75
2022/08/23 08:15:22;;;;;;;4.95;1.60;;;;;;;;;;4991875;28;20042;-76
2022/08/23 08:17:50;;;;;;;4.63;2.15;;;;;;;;;;4997736;28;20478;-75
2022/08/23 08:20:16;;;;;;;5.07;1.70;;;;;;;;;;4993231;28;20407;-75
2022/08/23 08:22:42;;;;;;;4.90;1.40;;;;;;;;;;4998845;28;20028;-75
2022/08/23 08:25:09;;;;;;;2.47;1.38;;;;;;;;;;4980831;28;20324;-75
2022/08/23 08:27:36;;;;;;;3.95;1.88;;;;;;;;;;4996412;28;20021;-75
2022/08/23 08:30:03;;;;;;;3.17;1.33;;;;;;;;;;4995094;28;20035;-75
2022/08/23 08:32:30;;;;;;;5.25;1.40;;;;;;;;;;4996308;28;20081;-76
2022/08/23 08:34:56;;;;;;;2.67;1.40;;;;;;;;;;4989481;28;20061;-75
2022/08/23 08:37:22;;;;;;;2.83;1.45;;;;;;;;;;4990468;28;20022;-75
2022/08/23 08:39:48;;;;;;;3.15;1.33;;;;;;;;;;4989382;28;20458;-75
2022/08/23 08:42:33;;;;;;;2.35;1.17;;;;;;;;;;4989268;28;20026;-75
2022/08/23 08:45:04;;;;;;;5.00;1.50;;;;;;;;;;4972189;28;20261;-75
2022/08/23 08:47:36;;;;;;;3.25;1.70;;;;;;;;;;4978397;28;20053;-75
2022/08/23 08:50:05;;;;;;;4.15;1.63;;;;;;;;;;4994462;28;20466;-75
2022/08/23 08:52:38;;;;;;;5.60;1.40;;;;;;;;;;4996501;28;20101;-75
2022/08/23 08:55:17;;;;;;;1.83;1.45;;;;;;;;;;4999621;28;20047;-75
2022/08/23 08:57:45;;;;;;;2.25;1.38;;;;;;;;;;5000351;28;20521;-75
2022/08/23 09:00:17;;;;;;;3.58;1.70;;;;;;;;;;5001843;28;20375;-75
2022/08/23 09:02:44;;;;;;;4.45;1.80;;;;;;;;;;5000432;28;20157;-75
2022/08/23 09:05:27;;;;;;;2.47;1.40;;;;;;;;;;4999565;28;20475;-75
2022/08/23 09:07:59;;;;;;;3.00;1.40;;;;;;;;;;4982216;28;20411;-75
2022/08/23 09:10:25;;;;;;;;;;;;;;;;;;4998866;28;20034;-75
2022/08/23 09:12:52;;;;;;;4.82;1.63;;;;;;;;;;4998898;28;19916;-75
2022/08/23 09:15:18;;;;;;;3.30;1.42;;;;;;;;;;4998914;28;20529;-75
2022/08/23 09:17:49;;;;;;;5.07;1.50;;;;;;;;;;4999331;28;20037;-76
2022/08/23 09:20:16;;;;;;;4.30;1.42;;;;;;;;;;4999958;28;20049;-75
2022/08/23 09:22:44;;;;;;;4.15;1.33;;;;;;;;;;4991824;28;20092;-75
2022/08/23 09:25:13;;;;;;;4.10;1.77;;;;;;;;;;4990008;28;20022;-75
2022/08/23 09:27:40;;;;;;;2.83;1.75;;;;;;;;;;4982185;28;20022;-75
2022/08/23 09:30:07;;;;;;;3.03;1.70;;;;;;;;;;4981975;28;20162;-75
2022/08/23 09:32:34;;;;;;;3.00;1.60;;;;;;;;;;4984209;28;20619;-75
2022/08/23 09:35:16;;;;;;;3.30;1.48;;;;;;;;;;4985623;28;20077;-76
2022/08/23 09:37:50;;;;;;;3.65;1.55;;;;;;;;;;4985714;28;20034;-75
2022/08/23 09:40:19;;;;;;;6.25;1.65;;;;;;;;;;4984199;28;20034;-75
2022/08/23 09:42:46;;;;;;;6.05;2.13;;;;;;;;;;4990560;28;20502;-75
2022/08/23 09:45:29;;;;;;;2.80;1.55;;;;;;;;;;5001303;28;20113;-76
2022/08/23 09:47:55;;;;;;;3.90;1.45;;;;;;;;;;4996331;28;20113;-75
2022/08/23 09:50:30;;;;;;;3.88;1.77;;;;;;;;;;4995117;28;20029;-75
2022/08/23 09:52:59;;;;;;;5.03;1.70;;;;;;;;;;4994853;28;20080;-75
2022/08/23 09:55:46;;;;;;;2.97;1.42;;;;;;;;;;4994717;28;20022;-75
2022/08/23 09:58:17;;;;;;;4.15;1.67;;;;;;;;;;4991976;28;20030;-76
2022/08/23 10:00:43;;;;;;;;;;;;;;;;;;4996202;28;20108;-75
2022/08/23 10:03:21;;;;;;;2.85;1.75;;;;;;;;;;4993788;28;19992;-75
2022/08/23 10:05:51;;;;;;;4.45;1.50;;;;;;;;;;4992071;28;20022;-75
2022/08/23 10:08:22;;;;;;;5.22;1.90;;;;;;;;;;4990803;28;20038;-75
2022/08/23 10:10:50;;;;;;;3.93;1.77;;;;;;;;;;4992481;28;20108;-75
2022/08/23 10:13:16;;;;;;;2.97;1.50;;;;;;;;;;4993518;28;20057;-76
2022/08/23 10:15:57;;;;;;;3.42;1.58;;;;;;;;;;4993818;28;20053;-75
2022/08/23 10:18:24;;;;;;;5.63;2.00;;;;;;;;;;4992404;28;20552;-75
2022/08/23 10:20:59;;;;;;;5.93;1.77;;;;;;;;;;4994708;28;20459;-75
2022/08/23 10:23:44;;;;;;;5.53;1.80;;;;;;;;;;4995217;28;20022;-75
2022/08/23 10:26:16;;;;;;;4.57;1.70;;;;;;;;;;4995070;28;20105;-75
2022/08/23 10:31:55;;;;;;;3.13;1.40;;;;;;;;;;4996223;28;20037;-75
2022/08/23 10:34:42;;;;;;;3.33;1.30;;;;;;;;;;4993708;28;20226;-75
2022/08/23 10:37:23;;;;;;;4.28;1.25;;;;;;;;;;4996277;28;20435;-75
2022/08/23 10:40:00;;;;;;;4.82;1.35;;;;;;;;;;4993776;28;20298;-75
2022/08/23 10:42:45;;;;;;;2.33;1.10;;;;;;;;;;4998326;28;20026;-75
2022/08/23 10:45:14;;;;;;;2.45;1.27;;;;;;;;;;4994700;28;20364;-75
2022/08/23 10:47:48;;;;;;;3.58;1.33;;;;;;;;;;4993566;28;20610;-75
2022/08/23 10:50:20;;;;;;;3.40;1.10;;;;;;;;;;4988355;28;20050;-75
2022/08/23 10:53:08;;;;;;;5.30;1.40;;;;;;;;;;4993161;28;20208;-75
2022/08/23 10:55:53;;;;;;;3.65;1.20;;;;;;;;;;4994045;28;20756;-75
2022/08/23 10:58:24;;;;;;;3.00;1.20;;;;;;;;;;4997851;28;20238;-75
2022/08/23 11:00:52;;;;;;;2.40;1.10;;;;;;;;;;4995041;28;20528;-75
2022/08/23 11:03:31;;;;;;;3.80;1.48;;;;;;;;;;4998419;28;20018;-75
2022/08/23 11:06:16;;;;;;;3.70;1.02;;;;;;;;;;4972769;28;20023;-75
2022/08/23 11:08:45;;;;;;;3.33;1.23;;;;;;;;;;4998835;28;20041;-75
2022/08/23 11:11:30;;;;;;;4.03;1.73;;;;;;;;;;4997968;28;20022;-75
2022/08/23 11:13:56;;;;;;;5.80;1.27;;;;;;;;;;4994847;28;20018;-75
2022/08/23 11:16:29;;;;;;;2.85;1.23;;;;;;;;;;4998488;28;20113;-75
2022/08/23 11:18:56;;;;;;;4.45;1.23;;;;;;;;;;4996225;28;20022;-75
2022/08/23 11:21:30;;;;;;;1.33;0.93;;;;;;;;;;4996981;28;20049;-75
2022/08/23 11:24:00;;;;;;;3.03;0.90;;;;;;;;;;4978297;28;20147;-75
2022/08/23 11:26:32;;;;;;;2.80;1.17;;;;;;;;;;4996122;28;20116;-75
2022/08/23 11:29:05;;;;;;;2.60;1.23;;;;;;;;;;4995857;28;20069;-75
2022/08/23 11:31:36;;;;;;;4.47;1.15;;;;;;;;;;4996388;28;20408;-75
2022/08/23 11:34:02;;;;;;;3.42;1.00;;;;;;;;;;4997931;28;20144;-75
2022/08/23 11:36:29;;;;;;;2.22;1.13;;;;;;;;;;4994288;28;20108;-75
2022/08/23 11:38:55;;;;;;;1.30;1.08;;;;;;;;;;4995276;28;20266;-75
2022/08/23 11:41:27;;;;;;;4.53;1.30;;;;;;;;;;4994125;28;20047;-75
2022/08/23 11:43:56;;;;;;;2.78;1.15;;;;;;;;;;4994764;28;20252;-76
2022/08/23 11:46:25;;;;;;;2.92;1.27;;;;;;;;;;4996841;28;20030;-75
2022/08/23 11:49:00;;;;;;;9.30;1.60;;;;;;;;;;4988543;28;20038;-75
2022/08/23 11:51:27;;;;;;;5.88;1.30;;;;;;;;;;4991484;28;20052;-75
2022/08/23 11:53:53;;;;;;;2.80;1.10;;;;;;;;;;4989434;28;20518;-75
2022/08/23 11:56:38;;;;;;;3.67;1.30;;;;;;;;;;4996358;28;20659;-75
2022/08/23 11:59:07;;;;;;;2.63;1.30;;;;;;;;;;4992923;28;20030;-75
2022/08/23 12:01:35;;;;;;;3.78;1.27;;;;;;;;;;4990450;28;20029;-75
2022/08/23 12:04:13;;;;;;;2.05;1.10;;;;;;;;;;4992575;28;20030;-75
2022/08/23 12:06:46;;;;;;;3.95;1.20;;;;;;;;;;4992546;28;20085;-75
2022/08/23 12:09:25;;;;;;;5.93;1.40;;;;;;;;;;4991466;28;20049;-75
2022/08/23 12:11:54;;;;;;;2.10;1.15;;;;;;;;;;4974081;28;20092;-75
2022/08/23 12:14:41;;;;;;;5.25;1.23;;;;;;;;;;4996648;28;20398;-75
2022/08/23 12:17:25;;;;;;;2.58;1.08;;;;;;;;;;4981450;28;20092;-75
2022/08/23 12:19:59;;;;;;;4.00;1.20;;;;;;;;;;4992823;28;20046;-75
2022/08/23 12:22:30;;;;;;;3.00;0.88;;;;;;;;;;4996280;28;20018;-75
2022/08/23 12:24:58;;;;;;;3.75;1.20;;;;;;;;;;4998210;28;20100;-75
2022/08/23 12:27:24;;;;;;;2.63;1.00;;;;;;;;;;4987998;28;20176;-75
2022/08/23 12:29:55;;;;;;;2.35;1.15;;;;;;;;;;4983973;28;20121;-75
2022/08/23 12:32:28;;;;;;;3.50;1.15;;;;;;;;;;4988076;28;20097;-75
2022/08/23 12:35:03;;;;;;;3.78;1.33;;;;;;;;;;4985631;28;20076;-75
2022/08/23 12:37:48;;;;;;;3.22;1.30;;;;;;;;;;4988581;28;20101;-75
2022/08/23 12:40:21;;;;;;;2.72;1.30;;;;;;;;;;4986602;28;20106;-75
2022/08/23 12:42:47;;;;;;;4.97;1.10;;;;;;;;;;4996113;28;20026;-75
2022/08/23 12:45:16;;;;;;;3.00;0.93;;;;;;;;;;4996570;28;20026;-75
2022/08/23 12:47:43;;;;;;;3.97;1.25;;;;;;;;;;4996090;28;20498;-75
2022/08/23 12:50:12;;;;;;;1.88;0.98;;;;;;;;;;4990709;28;20031;-75
2022/08/23 12:52:39;;;;;;;2.00;1.30;;;;;;;;;;4993578;28;20025;-75
2022/08/23 12:55:16;;;;;;;2.72;1.10;;;;;;;;;;4993645;28;20026;-75
2022/08/23 12:58:03;;;;;;;6.07;1.45;;;;;;;;;;4991640;28;20033;-75
2022/08/23 13:00:34;;;;;;;5.75;1.38;;;;;;;;;;4989630;28;20195;-75
2022/08/23 13:03:00;;;;;;;3.22;1.13;;;;;;;;;;4993832;28;20034;-75
2022/08/23 13:05:31;;;;;;;1.63;0.88;;;;;;;;;;4991468;28;20182;-75
2022/08/23 13:07:58;;;;;;;4.50;1.15;;;;;;;;;;4991656;28;20109;-75
2022/08/23 13:10:25;;;;;;;2.15;1.20;;;;;;;;;;4990987;28;20050;-75
2022/08/23 13:12:51;;;;;;;1.98;1.10;;;;;;;;;;4982441;28;20026;-75
2022/08/23 13:15:36;;;;;;;3.92;1.10;;;;;;;;;;4991598;28;20219;-76
2022/08/23 13:18:02;;;;;;;2.25;1.10;;;;;;;;;;4990856;28;20516;-75
2022/08/23 13:20:28;;;;;;;3.67;1.83;;;;;;;;;;4990258;28;20137;-75
2022/08/23 13:23:00;;;;;;;2.80;1.20;;;;;;;;;;4990650;28;20224;-75
2022/08/23 13:25:37;;;;;;;3.55;1.00;;;;;;;;;;4991231;28;20026;-75
2022/08/23 13:28:22;;;;;;;2.25;1.30;;;;;;;;;;4989477;28;20570;-75
2022/08/23 13:30:59;;;;;;;2.17;1.10;;;;;;;;;;4991411;28;20295;-75
2022/08/23 13:33:25;;;;;;;3.20;1.00;;;;;;;;;;4990906;28;20210;-75
2022/08/23 13:36:05;;;;;;;2.30;1.05;;;;;;;;;;4990687;28;20275;-75
2022/08/23 13:38:31;;;;;;;3.53;1.02;;;;;;;;;;4991259;28;20455;-75
2022/08/23 13:41:03;;;;;;;3.20;1.10;;;;;;;;;;4989773;28;20034;-75
2022/08/23 13:43:29;;;;;;;;;;;;;;;;;;4992144;28;20146;-75
2022/08/23 13:45:56;;;;;;;3.35;1.02;;;;;;;;;;4991699;28;19936;-75
2022/08/23 13:48:24;;;;;;;4.40;1.10;;;;;;;;;;4988615;28;20294;-75
2022/08/23 13:50:51;;;;;;;2.70;1.20;;;;;;;;;;4991665;28;20061;-75
2022/08/23 13:53:17;;;;;;;1.50;1.13;;;;;;;;;;4989862;28;20027;-75
2022/08/23 13:55:46;;;;;;;2.40;1.10;;;;;;;;;;4990489;28;20222;-75
2022/08/23 13:58:13;;;;;;;2.10;1.02;;;;;;;;;;4997716;28;20047;-76
2022/08/23 14:00:40;;;;;;;3.38;1.20;;;;;;;;;;4993191;28;20052;-81
2022/08/23 14:03:06;;;;;;;5.88;1.20;;;;;;;;;;4998864;28;20045;-84
2022/08/23 14:05:33;;;;;;;2.17;1.08;;;;;;;;;;5000966;28;20105;-80
2022/08/23 14:07:59;;;;;;;9.40;1.60;;;;;;;;;;4997664;28;20791;-84
2022/08/23 14:10:26;;;;;;;4.88;1.23;;;;;;;;;;4974688;28;20076;-84
2022/08/23 14:12:53;;;;;;;4.88;1.20;;;;;;;;;;4993311;28;20018;-82
2022/08/23 14:15:19;;;;;;;2.85;1.20;;;;;;;;;;4990185;28;20126;-83
2022/08/23 14:17:50;;;;;;;2.30;1.20;;;;;;;;;;4992588;28;20048;-81
2022/08/23 14:20:16;;;;;;;;;;;;;;;;;;4991050;28;20061;-79
2022/08/23 14:22:43;;;;;;;5.90;1.48;;;;;;;;;;5001273;28;19917;-81
2022/08/23 14:25:09;;;;;;;3.47;1.20;;;;;;;;;;4988442;28;20145;-80
2022/08/23 14:27:37;;;;;;;3.60;1.60;;;;;;;;;;4992335;28;20021;-83
2022/08/23 14:30:04;;;;;;;4.05;1.10;;;;;;;;;;4987645;28;20077;-84
2022/08/23 14:32:31;;;;;;;4.63;0.93;;;;;;;;;;4988275;28;20121;-81
2022/08/23 14:34:57;;;;;;;2.50;1.17;;;;;;;;;;4969479;28;20022;-81
2022/08/23 14:37:24;;;;;;;2.85;1.17;;;;;;;;;;4996104;28;20410;-81
2022/08/23 14:39:50;;;;;;;2.65;1.23;;;;;;;;;;4980358;28;20122;-81
2022/08/23 14:42:18;;;;;;;3.70;1.48;;;;;;;;;;4996073;28;20356;-81
2022/08/23 14:44:45;;;;;;;3.35;1.40;;;;;;;;;;4992354;28;20120;-83
2022/08/23 14:47:11;;;;;;;2.05;1.45;;;;;;;;;;4989948;28;20586;-84
2022/08/23 14:49:37;;;;;;;3.55;1.35;;;;;;;;;;4989895;28;20498;-85
2022/08/23 14:52:04;;;;;;;2.20;1.20;;;;;;;;;;4989926;28;20028;-82
2022/08/23 14:54:30;;;;;;;1.60;0.88;;;;;;;;;;4988708;28;20438;-83
2022/08/23 14:56:56;;;;;;;2.00;1.20;;;;;;;;;;4993458;28;20472;-84
2022/08/23 14:59:22;;;;;;;1.70;1.10;;;;;;;;;;4976414;28;20037;-84
2022/08/23 15:01:51;;;;;;;3.40;1.20;;;;;;;;;;4991456;28;20116;-85
2022/08/23 15:04:18;;;;;;;2.10;1.08;;;;;;;;;;4995261;28;20022;-84
2022/08/23 15:06:44;;;;;;;6.03;1.10;;;;;;;;;;4989874;28;20026;-84
2022/08/23 15:09:11;;;;;;;7.10;1.45;;;;;;;;;;4995552;28;20545;-83